Time;durP1;ratioP1;P1;durP2;ratioP2;P2;SDS_P1;SDS_P2;PMS_P1;PMS_P2;Temp;Humidity;BMP_temperature;BMP_pressure;BME280_temperature;BME280_humidity;BME280_pressure;Samples;Min_cycle;Max_cycle;Signal;HPM_P1;HPM_P2
2023/04/29 00:01:52;;;;;;;;;;;19.80;50.60;;;;;;4985688;28;19918;-53
2023/04/29 00:04:18;;;;;;;;;;;19.80;50.60;;;;;;4985891;28;19910;-54
2023/04/29 00:06:43;;;;;;;;;;;19.80;50.80;;;;;;4984588;28;20333;-53
2023/04/29 00:09:09;;;;;;;;;;;19.70;50.50;;;;;;4985196;28;19917;-53
2023/04/29 00:11:34;;;;;;;;;;;19.70;51.20;;;;;;4984808;28;20004;-53
2023/04/29 00:14:00;;;;;;;;;;;19.70;50.60;;;;;;4984851;28;19921;-53
2023/04/29 00:16:26;;;;;;;;;;;19.70;50.60;;;;;;4985436;28;19922;-53
2023/04/29 00:18:51;;;;;;;;;;;19.70;50.60;;;;;;4984910;28;19949;-53
2023/04/29 00:21:17;;;;;;;;;;;19.70;50.70;;;;;;4988417;28;20012;-53
2023/04/29 00:23:42;;;;;;;;;;;19.70;50.70;;;;;;4987833;28;19914;-53
2023/04/29 00:26:08;;;;;;;;;;;19.70;50.70;;;;;;4989270;28;19922;-53
2023/04/29 00:28:33;;;;;;;;;;;19.70;50.70;;;;;;4988833;28;19917;-54
2023/04/29 00:30:58;;;;;;;;;;;19.70;50.70;;;;;;4992438;28;20389;-53
2023/04/29 00:33:24;;;;;;;;;;;19.60;50.60;;;;;;5017405;28;19972;-53
2023/04/29 00:35:49;;;;;;;;;;;19.60;50.60;;;;;;4988750;28;19925;-53
2023/04/29 00:38:15;;;;;;;;;;;19.60;50.60;;;;;;4987532;28;20049;-53
2023/04/29 00:40:42;;;;;;;;;;;19.60;50.60;;;;;;4988532;28;20012;-53
2023/04/29 00:43:07;;;;;;;;;;;19.60;50.60;;;;;;4991225;28;19913;-53
2023/04/29 00:45:33;;;;;;;;;;;19.60;50.70;;;;;;4988601;28;19914;-53
2023/04/29 00:47:58;;;;;;;;;;;19.60;50.60;;;;;;4988019;28;19913;-54
2023/04/29 00:50:24;;;;;;;;;;;19.60;50.70;;;;;;4990304;28;19981;-54
2023/04/29 00:52:50;;;;;;;;;;;19.50;50.60;;;;;;4986919;28;20453;-54
2023/04/29 00:55:17;;;;;;;;;;;19.60;50.50;;;;;;4988812;28;19922;-54
2023/04/29 00:57:42;;;;;;;;;;;19.60;50.60;;;;;;5019390;28;19918;-54
2023/04/29 01:00:11;;;;;;;;;;;19.50;50.50;;;;;;4989400;28;20278;-53
2023/04/29 01:02:36;;;;;;;;;;;19.60;50.70;;;;;;4984499;28;19921;-53
2023/04/29 01:05:02;;;;;;;;;;;19.50;50.60;;;;;;5011216;28;19918;-54
2023/04/29 01:07:27;;;;;;;;;;;19.50;50.50;;;;;;4987926;28;19921;-54
2023/04/29 01:10:08;;;;;;;;;;;19.50;50.50;;;;;;4986527;28;20392;-53
2023/04/29 01:12:49;;;;;;;;;;;19.50;50.50;;;;;;4983209;28;19932;-54
2023/04/29 01:15:22;;;;;;;;;;;19.50;50.50;;;;;;4986639;28;20300;-54
2023/04/29 01:17:59;;;;;;;;;;;19.50;50.50;;;;;;4987625;28;19934;-53
2023/04/29 01:20:25;;;;;;;;;;;19.60;50.40;;;;;;4988184;28;19967;-54
2023/04/29 01:22:50;;;;;;;;;;;19.60;50.40;;;;;;4987836;28;20038;-53
2023/04/29 01:25:16;;;;;;;;;;;19.80;50.20;;;;;;4986019;28;19914;-54
2023/04/29 01:28:00;;;;;;;;;;;20.00;49.80;;;;;;4987647;28;19913;-54
2023/04/29 01:30:45;;;;;;;;;;;20.30;49.20;;;;;;4987677;28;19930;-53
2023/04/29 01:33:16;;;;;;;;;;;20.60;48.70;;;;;;5016049;28;19968;-53
2023/04/29 01:35:50;;;;;;;;;;;20.70;48.30;;;;;;5019864;28;19958;-53
2023/04/29 01:38:17;;;;;;;;;;;20.90;47.90;;;;;;5019755;28;20689;-54
2023/04/29 01:41:03;;;;;;;;;;;21.00;47.80;;;;;;5018318;28;19921;-54
2023/04/29 01:43:29;;;;;;;;;;;20.90;47.70;;;;;;4987421;28;19972;-53
2023/04/29 01:45:55;;;;;;;;;;;20.80;47.80;;;;;;5019326;28;19949;-53
2023/04/29 01:48:20;;;;;;;;;;;20.70;48.00;;;;;;4986796;28;19921;-53
2023/04/29 01:50:46;;;;;;;;;;;20.60;48.30;;;;;;4986938;28;19917;-54
2023/04/29 01:53:11;;;;;;;;;;;20.50;48.50;;;;;;4986943;28;19917;-54
2023/04/29 01:55:37;;;;;;;;;;;20.40;48.40;;;;;;4986759;28;20317;-53
2023/04/29 01:58:02;;;;;;;;;;;20.30;48.70;;;;;;4987183;28;19918;-53
2023/04/29 02:00:28;;;;;;;;;;;20.30;48.90;;;;;;4987276;28;19922;-53
2023/04/29 02:02:53;;;;;;;;;;;20.20;48.90;;;;;;4987878;28;19922;-55
2023/04/29 02:05:19;;;;;;;;;;;20.10;49.20;;;;;;4986950;28;19914;-53
2023/04/29 02:07:44;;;;;;;;;;;20.00;49.30;;;;;;4985197;28;19913;-54
2023/04/29 02:10:10;;;;;;;;;;;20.00;49.30;;;;;;4987597;28;19917;-53
2023/04/29 02:12:36;;;;;;;;;;;20.00;49.50;;;;;;4986976;28;19926;-53
2023/04/29 02:15:01;;;;;;;;;;;20.00;49.60;;;;;;4987802;28;19913;-53
2023/04/29 02:17:27;;;;;;;;;;;19.90;49.50;;;;;;5018899;28;19917;-54
2023/04/29 02:19:53;;;;;;;;;;;19.90;49.60;;;;;;4982253;28;19929;-53
2023/04/29 02:22:19;;;;;;;;;;;19.80;49.60;;;;;;4985588;28;19945;-53
2023/04/29 02:24:45;;;;;;;;;;;19.80;49.70;;;;;;4986254;28;19917;-54
2023/04/29 02:27:10;;;;;;;;;;;19.80;49.60;;;;;;5001408;28;19918;-53
2023/04/29 02:29:36;;;;;;;;;;;19.70;49.50;;;;;;4986649;28;20063;-54
2023/04/29 02:32:01;;;;;;;;;;;19.70;49.50;;;;;;4985529;28;19999;-53
2023/04/29 02:34:27;;;;;;;;;;;19.70;49.40;;;;;;4986872;28;20283;-53
2023/04/29 02:36:52;;;;;;;;;;;19.70;49.50;;;;;;4986092;28;19918;-53
2023/04/29 02:39:19;;;;;;;;;;;19.70;49.40;;;;;;4985427;28;20429;-53
2023/04/29 02:41:44;;;;;;;;;;;19.80;49.60;;;;;;4987235;28;20065;-53
2023/04/29 02:44:11;;;;;;;;;;;19.90;49.50;;;;;;4985546;28;20000;-53
2023/04/29 02:46:38;;;;;;;;;;;19.90;49.20;;;;;;4986481;28;19921;-53
2023/04/29 02:49:04;;;;;;;;;;;20.00;48.90;;;;;;4986039;28;20371;-54
2023/04/29 02:51:29;;;;;;;;;;;20.20;48.60;;;;;;5012988;28;19969;-54
2023/04/29 02:53:55;;;;;;;;;;;20.40;48.30;;;;;;4985945;28;19921;-54
2023/04/29 02:56:22;;;;;;;;;;;20.50;48.00;;;;;;4986081;28;19924;-53
2023/04/29 02:58:47;;;;;;;;;;;20.50;47.70;;;;;;4986585;28;19914;-53
2023/04/29 03:01:13;;;;;;;;;;;20.50;47.80;;;;;;4986136;28;19925;-53
2023/04/29 03:03:38;;;;;;;;;;;20.50;47.70;;;;;;5018093;28;20005;-54
2023/04/29 03:06:04;;;;;;;;;;;20.40;48.00;;;;;;4986402;28;19921;-53
2023/04/29 03:08:29;;;;;;;;;;;20.40;48.10;;;;;;4984994;28;19922;-53
2023/04/29 03:10:55;;;;;;;;;;;20.30;48.20;;;;;;4986672;28;20020;-53
2023/04/29 03:13:21;;;;;;;;;;;20.20;48.20;;;;;;4985643;28;19993;-54
2023/04/29 03:15:46;;;;;;;;;;;20.10;48.50;;;;;;4988206;28;19918;-54
2023/04/29 03:18:12;;;;;;;;;;;20.00;48.70;;;;;;4984062;28;19914;-53
2023/04/29 03:20:37;;;;;;;;;;;20.00;48.70;;;;;;4983903;28;19918;-53
2023/04/29 03:23:02;;;;;;;;;;;19.90;48.70;;;;;;4984263;28;19922;-54
2023/04/29 03:25:29;;;;;;;;;;;19.90;48.80;;;;;;4984327;28;19918;-53
2023/04/29 03:27:54;;;;;;;;;;;19.90;48.90;;;;;;4984651;28;19926;-53
2023/04/29 03:30:20;;;;;;;;;;;19.90;49.00;;;;;;5000096;28;19914;-53
2023/04/29 03:32:45;;;;;;;;;;;19.80;48.90;;;;;;4987625;28;19917;-54
2023/04/29 03:35:11;;;;;;;;;;;19.70;49.00;;;;;;4986292;28;19913;-53
2023/04/29 03:37:37;;;;;;;;;;;19.70;49.10;;;;;;4986019;28;20374;-53
2023/04/29 03:40:03;;;;;;;;;;;19.70;49.10;;;;;;4985617;28;19921;-54
2023/04/29 03:42:29;;;;;;;;;;;19.70;49.20;;;;;;4985433;28;20330;-53
2023/04/29 03:44:54;;;;;;;;;;;19.60;49.00;;;;;;4985680;28;20016;-54
2023/04/29 03:47:20;;;;;;;;;;;19.60;49.00;;;;;;4985337;28;20390;-53
2023/04/29 03:49:45;;;;;;;;;;;19.70;49.20;;;;;;4985389;28;19922;-53
2023/04/29 03:52:11;;;;;;;;;;;19.70;49.00;;;;;;4986304;28;19914;-53
2023/04/29 03:54:36;;;;;;;;;;;19.80;48.90;;;;;;4987257;28;20024;-53
2023/04/29 03:57:02;;;;;;;;;;;19.90;48.70;;;;;;4989989;28;19929;-53
2023/04/29 03:59:27;;;;;;;;;;;20.00;48.50;;;;;;4988809;28;19937;-53
2023/04/29 04:01:53;;;;;;;;;;;20.10;48.30;;;;;;4989493;28;19926;-53
2023/04/29 04:04:18;;;;;;;;;;;20.20;48.00;;;;;;4989787;28;20013;-53
2023/04/29 04:06:50;;;;;;;;;;;20.30;47.90;;;;;;5021768;28;19917;-53
2023/04/29 04:09:15;;;;;;;;;;;20.30;47.70;;;;;;4990542;28;20336;-53
2023/04/29 04:11:41;;;;;;;;;;;20.30;47.60;;;;;;4989678;28;20028;-53
2023/04/29 04:14:07;;;;;;;;;;;20.40;47.60;;;;;;4988243;28;19971;-53
2023/04/29 04:16:32;;;;;;;;;;;20.40;47.60;;;;;;4988873;28;19913;-53
2023/04/29 04:18:58;;;;;;;;;;;20.30;47.80;;;;;;4985062;28;20401;-53
2023/04/29 04:21:24;;;;;;;;;;;20.20;47.90;;;;;;4988694;28;20404;-53
2023/04/29 04:23:50;;;;;;;;;;;20.20;47.90;;;;;;4988018;28;19984;-53
2023/04/29 04:26:15;;;;;;;;;;;20.10;48.10;;;;;;4989781;28;19937;-54
2023/04/29 04:28:41;;;;;;;;;;;20.00;48.10;;;;;;4988577;28;19921;-53
2023/04/29 04:31:06;;;;;;;;;;;20.00;48.30;;;;;;4989427;28;19925;-53
2023/04/29 04:33:33;;;;;;;;;;;19.90;48.30;;;;;;4989446;28;20474;-53
2023/04/29 04:35:58;;;;;;;;;;;19.90;48.50;;;;;;5019430;28;20359;-53
2023/04/29 04:38:25;;;;;;;;;;;19.80;48.50;;;;;;4988473;28;19969;-54
2023/04/29 04:40:50;;;;;;;;;;;19.80;48.50;;;;;;4988583;28;19918;-53
2023/04/29 04:43:16;;;;;;;;;;;19.70;48.60;;;;;;4987691;28;19921;-53
2023/04/29 04:45:41;;;;;;;;;;;19.70;48.60;;;;;;4987617;28;19953;-54
2023/04/29 04:48:07;;;;;;;;;;;19.70;48.60;;;;;;4988975;28;19914;-53
2023/04/29 04:50:32;;;;;;;;;;;19.70;48.70;;;;;;4987980;28;19917;-53
2023/04/29 04:52:58;;;;;;;;;;;19.60;48.60;;;;;;4987356;28;20727;-53
2023/04/29 04:55:23;;;;;;;;;;;19.60;48.70;;;;;;4988888;28;20383;-53
2023/04/29 04:57:49;;;;;;;;;;;19.60;48.80;;;;;;4988090;28;20282;-53
2023/04/29 05:00:14;;;;;;;;;;;19.60;48.70;;;;;;4987399;28;20346;-53
2023/04/29 05:02:40;;;;;;;;;;;19.70;48.80;;;;;;4988590;28;19949;-53
2023/04/29 05:05:06;;;;;;;;;;;19.70;48.70;;;;;;4987431;28;19972;-53
2023/04/29 05:07:32;;;;;;;;;;;19.70;48.60;;;;;;4987714;28;20051;-53
2023/04/29 05:09:57;;;;;;;;;;;19.70;48.40;;;;;;4986335;28;19918;-53
2023/04/29 05:12:24;;;;;;;;;;;19.70;48.30;;;;;;5019132;28;19972;-53
2023/04/29 05:14:52;;;;;;;;;;;19.80;48.30;;;;;;4987595;28;20390;-54
2023/04/29 05:17:18;;;;;;;;;;;19.90;48.00;;;;;;5019919;28;19925;-53
2023/04/29 05:19:43;;;;;;;;;;;19.90;48.00;;;;;;4987854;28;19922;-53
2023/04/29 05:22:09;;;;;;;;;;;19.90;48.00;;;;;;4988671;28;19914;-53
2023/04/29 05:24:34;;;;;;;;;;;19.90;47.90;;;;;;4983313;28;19960;-53
2023/04/29 05:27:00;;;;;;;;;;;19.90;47.90;;;;;;4987429;28;19953;-53
2023/04/29 05:29:26;;;;;;;;;;;19.90;48.10;;;;;;4988285;28;19992;-53
2023/04/29 05:31:52;;;;;;;;;;;19.90;48.20;;;;;;4989676;28;19914;-52
2023/04/29 05:34:17;;;;;;;;;;;19.80;48.20;;;;;;4987426;28;19918;-53
2023/04/29 05:36:43;;;;;;;;;;;19.80;48.30;;;;;;5019623;28;19924;-53
2023/04/29 05:39:08;;;;;;;;;;;19.70;48.20;;;;;;4986819;28;19952;-53
2023/04/29 05:41:34;;;;;;;;;;;19.70;48.20;;;;;;4987776;28;19932;-53
2023/04/29 05:43:59;;;;;;;;;;;19.70;48.30;;;;;;4989829;28;19913;-53
2023/04/29 05:46:25;;;;;;;;;;;19.70;48.40;;;;;;4987615;28;19914;-53
2023/04/29 05:48:50;;;;;;;;;;;19.70;48.40;;;;;;4987046;28;19929;-53
2023/04/29 05:51:16;;;;;;;;;;;19.70;48.40;;;;;;4987615;28;19922;-53
2023/04/29 05:53:41;;;;;;;;;;;19.70;48.40;;;;;;4986524;28;20295;-53
2023/04/29 05:56:07;;;;;;;;;;;19.70;48.40;;;;;;4983956;28;20274;-53
2023/04/29 05:58:33;;;;;;;;;;;19.70;48.40;;;;;;4988240;28;20310;-53
2023/04/29 06:00:59;;;;;;;;;;;19.70;48.50;;;;;;4986104;28;20437;-53
2023/04/29 06:03:24;;;;;;;;;;;19.70;48.40;;;;;;4981188;28;20016;-53
2023/04/29 06:05:49;;;;;;;;;;;19.70;48.40;;;;;;4986936;28;20382;-53
2023/04/29 06:08:15;;;;;;;;;;;19.70;48.40;;;;;;4987443;28;20345;-53
2023/04/29 06:10:40;;;;;;;;;;;19.70;48.30;;;;;;4987338;28;20326;-53
2023/04/29 06:13:06;;;;;;;;;;;19.70;48.30;;;;;;4987640;28;20351;-53
2023/04/29 06:15:31;;;;;;;;;;;19.70;48.30;;;;;;4987921;28;19936;-53
2023/04/29 06:17:57;;;;;;;;;;;19.70;48.20;;;;;;4986281;28;19914;-53
2023/04/29 06:20:22;;;;;;;;;;;19.70;48.10;;;;;;4985332;28;19972;-54
2023/04/29 06:22:48;;;;;;;;;;;19.80;48.30;;;;;;4983646;28;19960;-53
2023/04/29 06:25:13;;;;;;;;;;;19.80;48.00;;;;;;4988579;28;19928;-52
2023/04/29 06:27:39;;;;;;;;;;;19.80;48.00;;;;;;4985200;28;20363;-53
2023/04/29 06:30:05;;;;;;;;;;;19.70;48.00;;;;;;4984984;28;19918;-53
2023/04/29 06:32:30;;;;;;;;;;;19.70;48.10;;;;;;4986783;28;20390;-52
2023/04/29 06:34:56;;;;;;;;;;;19.70;48.10;;;;;;4989675;28;19964;-53
2023/04/29 06:37:21;;;;;;;;;;;19.70;48.20;;;;;;4986309;28;19921;-53
2023/04/29 06:39:47;;;;;;;;;;;19.60;48.30;;;;;;4985984;28;20057;-53
2023/04/29 06:42:12;;;;;;;;;;;19.60;48.30;;;;;;4987047;28;19914;-53
2023/04/29 06:44:38;;;;;;;;;;;19.60;48.40;;;;;;4983643;28;20395;-53
2023/04/29 06:47:03;;;;;;;;;;;19.60;48.40;;;;;;4988128;28;20393;-53
2023/04/29 06:49:29;;;;;;;;;;;19.60;48.30;;;;;;4986614;28;20298;-53
2023/04/29 06:51:54;;;;;;;;;;;19.60;48.40;;;;;;4986622;28;19918;-53
2023/04/29 06:54:20;;;;;;;;;;;19.50;48.40;;;;;;4984909;28;20016;-53
2023/04/29 06:56:46;;;;;;;;;;;19.50;48.40;;;;;;4986144;28;20366;-53
2023/04/29 06:59:11;;;;;;;;;;;19.60;48.50;;;;;;4985472;28;19914;-53
2023/04/29 07:01:37;;;;;;;;;;;19.50;48.40;;;;;;4980905;28;19918;-53
2023/04/29 07:04:03;;;;;;;;;;;19.50;48.30;;;;;;5017366;28;20063;-53
2023/04/29 07:06:28;;;;;;;;;;;19.60;48.50;;;;;;4986903;28;19922;-53
2023/04/29 07:08:54;;;;;;;;;;;19.50;48.50;;;;;;4985170;28;19925;-53
2023/04/29 07:11:19;;;;;;;;;;;19.50;48.30;;;;;;4986533;28;19988;-53
2023/04/29 07:13:45;;;;;;;;;;;19.50;48.30;;;;;;4977629;28;19914;-53
2023/04/29 07:16:15;;;;;;;;;;;19.60;48.50;;;;;;4985466;28;19918;-53
2023/04/29 07:18:40;;;;;;;;;;;19.60;48.30;;;;;;4984068;28;20402;-53
2023/04/29 07:21:07;;;;;;;;;;;19.70;48.40;;;;;;4982464;28;19921;-53
2023/04/29 07:23:32;;;;;;;;;;;19.70;48.30;;;;;;4993582;28;20380;-53
2023/04/29 07:25:57;;;;;;;;;;;19.70;48.20;;;;;;4981465;28;19918;-53
2023/04/29 07:28:23;;;;;;;;;;;19.70;48.30;;;;;;4981179;28;20001;-53
2023/04/29 07:30:48;;;;;;;;;;;19.80;48.10;;;;;;4984370;28;19914;-53
2023/04/29 07:33:14;;;;;;;;;;;19.80;48.00;;;;;;4983298;28;19914;-53
2023/04/29 07:35:42;;;;;;;;;;;19.80;48.20;;;;;;4982826;28;19914;-53
2023/04/29 07:38:08;;;;;;;;;;;19.70;48.10;;;;;;4984720;28;20375;-54
2023/04/29 07:40:33;;;;;;;;;;;19.70;48.90;;;;;;4990419;28;19934;-53
2023/04/29 07:43:03;;;;;;;;;;;19.70;48.30;;;;;;4983153;28;20445;-53
2023/04/29 07:45:28;;;;;;;;;;;19.70;48.30;;;;;;4984124;28;20260;-53
2023/04/29 07:47:54;;;;;;;;;;;19.70;48.10;;;;;;4983725;28;19918;-53
2023/04/29 07:50:20;;;;;;;;;;;19.70;48.30;;;;;;4983017;28;19921;-53
2023/04/29 07:52:45;;;;;;;;;;;19.70;48.10;;;;;;4986828;28;19968;-53
2023/04/29 07:55:11;;;;;;;;;;;19.80;48.10;;;;;;4984568;28;20293;-53
2023/04/29 07:57:36;;;;;;;;;;;19.70;48.00;;;;;;4988274;28;19918;-53
2023/04/29 08:00:01;;;;;;;;;;;19.70;48.00;;;;;;4986687;28;19918;-54
2023/04/29 08:02:27;;;;;;;;;;;19.80;48.00;;;;;;4987283;28;19918;-53
2023/04/29 08:04:54;;;;;;;;;;;19.80;48.00;;;;;;4986792;28;20271;-53
2023/04/29 08:07:20;;;;;;;;;;;19.70;47.90;;;;;;4985060;28;20366;-53
2023/04/29 08:09:45;;;;;;;;;;;19.80;48.00;;;;;;4984126;28;19913;-54
2023/04/29 08:12:11;;;;;;;;;;;19.70;48.00;;;;;;4917539;28;1756173;-53
2023/04/29 08:14:36;;;;;;;;;;;19.80;48.00;;;;;;4985567;28;20020;-53
2023/04/29 08:17:01;;;;;;;;;;;19.80;47.90;;;;;;4986126;28;19913;-53
2023/04/29 08:19:27;;;;;;;;;;;19.80;47.90;;;;;;4985590;28;20013;-53
2023/04/29 08:21:53;;;;;;;;;;;19.80;48.00;;;;;;4984496;28;19918;-53
2023/04/29 08:24:20;;;;;;;;;;;19.80;48.60;;;;;;4977397;28;19925;-54
2023/04/29 08:26:46;;;;;;;;;;;19.80;48.00;;;;;;4985473;28;19973;-54
2023/04/29 08:29:11;;;;;;;;;;;19.80;48.00;;;;;;4979981;28;19913;-53
2023/04/29 08:31:37;;;;;;;;;;;19.70;48.00;;;;;;4985501;28;19913;-54
2023/04/29 08:34:02;;;;;;;;;;;19.80;47.90;;;;;;4985888;28;19914;-54
2023/04/29 08:36:28;;;;;;;;;;;19.80;47.70;;;;;;4997234;28;19925;-53
2023/04/29 08:38:54;;;;;;;;;;;19.80;47.70;;;;;;4983940;28;20004;-53
2023/04/29 08:41:20;;;;;;;;;;;19.80;47.50;;;;;;4991468;28;19923;-54
2023/04/29 08:43:45;;;;;;;;;;;19.80;47.60;;;;;;4991625;28;20290;-54
2023/04/29 08:46:11;;;;;;;;;;;19.90;47.70;;;;;;4989371;28;19914;-54
2023/04/29 08:48:38;;;;;;;;;;;19.80;47.60;;;;;;4982826;28;20012;-54
2023/04/29 08:51:04;;;;;;;;;;;19.80;47.60;;;;;;4986246;28;19913;-53
2023/04/29 08:53:29;;;;;;;;;;;19.80;47.30;;;;;;4986964;28;19918;-53
2023/04/29 08:55:56;;;;;;;;;;;19.90;47.60;;;;;;4988330;28;19988;-54
2023/04/29 08:58:21;;;;;;;;;;;19.90;47.60;;;;;;4988187;28;19941;-54
2023/04/29 09:00:47;;;;;;;;;;;19.90;47.50;;;;;;4984868;28;20385;-54
2023/04/29 09:03:23;;;;;;;;;;;19.90;47.50;;;;;;5015639;28;20012;-53
2023/04/29 09:05:51;;;;;;;;;;;19.90;47.60;;;;;;4987681;28;19924;-54
2023/04/29 09:08:17;;;;;;;;;;;19.90;47.50;;;;;;4987182;28;19957;-53
2023/04/29 09:10:42;;;;;;;;;;;19.90;47.40;;;;;;4988931;28;20042;-53
2023/04/29 09:13:07;;;;;;;;;;;19.90;47.40;;;;;;4980746;28;19933;-53
2023/04/29 09:15:36;;;;;;;;;;;19.90;47.40;;;;;;4974861;28;20378;-53
2023/04/29 09:18:02;;;;;;;;;;;19.90;47.30;;;;;;4973289;28;20285;-54
2023/04/29 09:20:28;;;;;;;;;;;19.90;47.30;;;;;;4973770;28;19924;-53
2023/04/29 09:22:54;;;;;;;;;;;19.90;48.00;;;;;;4977855;28;19918;-53
2023/04/29 09:25:19;;;;;;;;;;;19.90;47.30;;;;;;4983311;28;19996;-53
2023/04/29 09:27:45;;;;;;;;;;;19.90;47.30;;;;;;4986953;28;19960;-53
2023/04/29 09:30:12;;;;;;;;;;;20.00;47.30;;;;;;4990732;28;19914;-53
2023/04/29 09:32:38;;;;;;;;;;;20.00;47.20;;;;;;4984546;28;19914;-53
2023/04/29 09:35:25;;;;;;;;;;;20.00;47.20;;;;;;5002679;28;20408;-54
2023/04/29 09:37:54;;;;;;;;;;;20.00;47.20;;;;;;4988203;28;19914;-53
2023/04/29 09:40:32;;;;;;;;;;;20.00;47.10;;;;;;4987532;28;19965;-53
2023/04/29 09:42:57;;;;;;;;;;;20.00;47.20;;;;;;4987382;28;19922;-53
2023/04/29 09:45:35;;;;;;;;;;;20.00;47.20;;;;;;5018842;28;19922;-53
2023/04/29 09:48:02;;;;;;;;;;;20.00;47.20;;;;;;4987796;28;19920;-53
2023/04/29 09:50:27;;;;;;;;;;;20.00;47.20;;;;;;4987860;28;19921;-53
2023/04/29 09:52:53;;;;;;;;;;;20.00;47.20;;;;;;4986098;28;20225;-53
2023/04/29 09:55:18;;;;;;;;;;;20.00;47.20;;;;;;4987936;28;23852;-53
2023/04/29 09:57:44;;;;;;;;;;;20.00;47.20;;;;;;4987005;28;19913;-53
2023/04/29 10:00:10;;;;;;;;;;;20.10;47.20;;;;;;4987897;28;20008;-53
2023/04/29 10:02:36;;;;;;;;;;;20.00;47.10;;;;;;4985741;28;19973;-53
2023/04/29 10:05:01;;;;;;;;;;;20.10;47.20;;;;;;4987504;28;20013;-53
2023/04/29 10:07:27;;;;;;;;;;;20.10;47.20;;;;;;5004221;28;19987;-53
2023/04/29 10:09:52;;;;;;;;;;;20.10;47.20;;;;;;4985798;28;20777;-54
2023/04/29 10:12:19;;;;;;;;;;;20.10;47.10;;;;;;4986807;28;19926;-53
2023/04/29 10:14:50;;;;;;;;;;;20.10;47.00;;;;;;4987325;28;19921;-53
2023/04/29 10:17:16;;;;;;;;;;;20.10;47.00;;;;;;4986771;28;19941;-53
2023/04/29 10:19:46;;;;;;;;;;;20.10;47.00;;;;;;4987170;28;19918;-53
2023/04/29 10:22:13;;;;;;;;;;;20.10;46.90;;;;;;4985646;28;20366;-53
2023/04/29 10:24:39;;;;;;;;;;;20.10;46.70;;;;;;5000777;28;19917;-53
2023/04/29 10:27:07;;;;;;;;;;;20.20;46.90;;;;;;4985629;28;20400;-54
2023/04/29 10:29:33;;;;;;;;;;;20.20;46.80;;;;;;4986662;28;20382;-53
2023/04/29 10:31:59;;;;;;;;;;;20.20;46.80;;;;;;5017779;28;19914;-54
2023/04/29 10:34:24;;;;;;;;;;;20.20;46.70;;;;;;5016608;28;19921;-53
2023/04/29 10:36:50;;;;;;;;;;;20.20;47.40;;;;;;4984600;28;19957;-53
2023/04/29 10:39:20;;;;;;;;;;;20.20;46.70;;;;;;4988047;28;19918;-53
2023/04/29 10:41:49;;;;;;;;;;;20.20;46.60;;;;;;5016688;28;19914;-53
2023/04/29 10:44:15;;;;;;;;;;;20.30;46.60;;;;;;4986540;28;19975;-53
2023/04/29 10:46:40;;;;;;;;;;;20.30;46.60;;;;;;4985386;28;20004;-53
2023/04/29 10:49:07;;;;;;;;;;;20.30;46.60;;;;;;4984187;28;19965;-53
2023/04/29 10:51:33;;;;;;;;;;;20.30;46.60;;;;;;4985159;28;20346;-53
2023/04/29 10:54:06;;;;;;;;;;;20.30;46.50;;;;;;4984455;28;20083;-53
2023/04/29 10:56:36;;;;;;;;;;;20.30;46.50;;;;;;5020484;28;19921;-54
2023/04/29 10:59:02;;;;;;;;;;;20.30;46.50;;;;;;4986075;28;20634;-53
2023/04/29 11:01:43;;;;;;;;;;;20.30;46.40;;;;;;4987788;28;19922;-53
2023/04/29 11:04:10;;;;;;;;;;;20.30;46.40;;;;;;4979654;28;19949;-53
2023/04/29 11:06:35;;;;;;;;;;;20.30;46.20;;;;;;4980311;28;19914;-53
2023/04/29 11:09:20;;;;;;;;;;;20.40;46.20;;;;;;4985225;28;19921;-53
2023/04/29 11:11:53;;;;;;;;;;;20.50;46.00;;;;;;4985674;28;19969;-54
2023/04/29 11:14:30;;;;;;;;;;;20.50;46.00;;;;;;4986139;28;19917;-53
2023/04/29 11:16:57;;;;;;;;;;;20.50;45.80;;;;;;4997163;28;20459;-53
2023/04/29 11:19:23;;;;;;;;;;;20.50;45.90;;;;;;5018991;28;19914;-53
2023/04/29 11:21:50;;;;;;;;;;;20.50;45.90;;;;;;4984675;28;19950;-53
2023/04/29 11:24:16;;;;;;;;;;;20.50;45.90;;;;;;5016526;28;19920;-53
2023/04/29 11:26:42;;;;;;;;;;;20.40;45.70;;;;;;4984595;28;19914;-53
2023/04/29 11:29:11;;;;;;;;;;;20.40;44.70;;;;;;4984958;28;19917;-53
2023/04/29 11:31:38;;;;;;;;;;;20.40;44.80;;;;;;4986863;28;19924;-54
2023/04/29 11:34:03;;;;;;;;;;;20.40;44.40;;;;;;4984336;28;19918;-53
2023/04/29 11:36:31;;;;;;;;;;;20.50;44.80;;;;;;4984682;28;20375;-53
2023/04/29 11:38:56;;;;;;;;;;;20.50;45.10;;;;;;4983098;28;20392;-53
2023/04/29 11:41:22;;;;;;;;;;;20.50;45.30;;;;;;5015927;28;19928;-53
2023/04/29 11:43:55;;;;;;;;;;;20.50;45.60;;;;;;4986356;28;20041;-53
2023/04/29 11:46:20;;;;;;;;;;;20.50;45.70;;;;;;4984866;28;20481;-53
2023/04/29 11:48:46;;;;;;;;;;;20.50;45.70;;;;;;4985179;28;20028;-53
2023/04/29 11:51:12;;;;;;;;;;;20.50;45.80;;;;;;4985543;28;19922;-53
2023/04/29 11:53:37;;;;;;;;;;;20.60;45.90;;;;;;4984091;28;19929;-53
2023/04/29 11:56:03;;;;;;;;;;;20.50;45.70;;;;;;4985296;28;19919;-53
2023/04/29 11:58:29;;;;;;;;;;;20.50;45.80;;;;;;4985351;28;19972;-53
2023/04/29 12:00:55;;;;;;;;;;;20.50;45.80;;;;;;4979709;28;20287;-53
2023/04/29 12:03:20;;;;;;;;;;;20.60;45.90;;;;;;4984489;28;19920;-54
2023/04/29 12:05:47;;;;;;;;;;;20.60;46.00;;;;;;4986142;28;19913;-53
2023/04/29 12:08:13;;;;;;;;;;;20.70;45.90;;;;;;4981806;28;20339;-53
2023/04/29 12:10:38;;;;;;;;;;;20.70;45.90;;;;;;4985860;28;19918;-54
2023/04/29 12:13:04;;;;;;;;;;;20.70;46.00;;;;;;4984026;28;20275;-55
2023/04/29 12:15:29;;;;;;;;;;;20.80;45.90;;;;;;4987790;28;19914;-53
2023/04/29 12:17:55;;;;;;;;;;;20.80;45.80;;;;;;4989160;28;19968;-53
2023/04/29 12:20:20;;;;;;;;;;;20.80;45.80;;;;;;4989094;28;19925;-53
2023/04/29 12:22:46;;;;;;;;;;;20.70;45.90;;;;;;4987378;28;19922;-53
2023/04/29 12:25:12;;;;;;;;;;;20.70;46.00;;;;;;4988811;28;19920;-53
2023/04/29 12:27:38;;;;;;;;;;;20.70;46.10;;;;;;4989359;28;19922;-53
2023/04/29 12:30:11;;;;;;;;;;;20.70;46.10;;;;;;4988518;28;20378;-53
2023/04/29 12:32:36;;;;;;;;;;;20.70;46.20;;;;;;4989213;28;19948;-53
2023/04/29 12:35:02;;;;;;;;;;;20.70;46.10;;;;;;5021244;28;19957;-53
2023/04/29 12:37:27;;;;;;;;;;;20.70;46.20;;;;;;4990712;28;19922;-53
2023/04/29 12:39:53;;;;;;;;;;;20.70;46.20;;;;;;4987475;28;19976;-54
2023/04/29 12:42:18;;;;;;;;;;;20.70;46.40;;;;;;4988280;28;19948;-53
2023/04/29 12:44:45;;;;;;;;;;;20.70;46.30;;;;;;4988225;28;19920;-53
2023/04/29 12:47:12;;;;;;;;;;;20.70;46.40;;;;;;4989650;28;19969;-53
2023/04/29 12:49:40;;;;;;;;;;;20.80;46.30;;;;;;4988578;28;19972;-54
2023/04/29 12:52:09;;;;;;;;;;;20.80;46.30;;;;;;4988210;28;20352;-53
2023/04/29 12:54:39;;;;;;;;;;;20.80;46.20;;;;;;4988391;28;19913;-53
2023/04/29 12:57:05;;;;;;;;;;;20.80;46.30;;;;;;4991746;28;20385;-53
2023/04/29 12:59:30;;;;;;;;;;;20.80;46.40;;;;;;4988583;28;19917;-54
2023/04/29 13:01:56;;;;;;;;;;;20.80;46.40;;;;;;4990724;28;19914;-53
2023/04/29 13:04:21;;;;;;;;;;;20.80;46.40;;;;;;4983038;28;19915;-52
2023/04/29 13:06:47;;;;;;;;;;;20.80;46.50;;;;;;4988622;28;19925;-53
2023/04/29 13:09:12;;;;;;;;;;;20.80;46.50;;;;;;4986877;28;19913;-53
2023/04/29 13:11:38;;;;;;;;;;;20.90;46.40;;;;;;4987815;28;19925;-53
2023/04/29 13:14:05;;;;;;;;;;;20.90;46.50;;;;;;5018824;28;19918;-53
2023/04/29 13:16:33;;;;;;;;;;;20.90;46.50;;;;;;4988180;28;19945;-53
2023/04/29 13:18:59;;;;;;;;;;;20.90;46.50;;;;;;4986579;28;20005;-53
2023/04/29 13:21:26;;;;;;;;;;;20.90;46.40;;;;;;4986222;28;20390;-53
2023/04/29 13:23:52;;;;;;;;;;;21.00;46.40;;;;;;4987064;28;19914;-53
2023/04/29 13:26:17;;;;;;;;;;;21.00;46.40;;;;;;4982069;28;20432;-53
2023/04/29 13:28:42;;;;;;;;;;;21.00;46.30;;;;;;4983896;28;20401;-53
2023/04/29 13:31:08;;;;;;;;;;;21.00;46.30;;;;;;4986549;28;20688;-53
2023/04/29 13:33:33;;;;;;;;;;;21.00;46.30;;;;;;4987918;28;20362;-53
2023/04/29 13:35:59;;;;;;;;;;;21.10;46.20;;;;;;5004675;28;20290;-53
2023/04/29 13:38:25;;;;;;;;;;;21.10;46.20;;;;;;4987144;28;20291;-53
2023/04/29 13:40:50;;;;;;;;;;;21.10;46.20;;;;;;4986946;28;20010;-53
2023/04/29 13:43:16;;;;;;;;;;;21.10;46.30;;;;;;4987318;28;19956;-54
2023/04/29 13:45:41;;;;;;;;;;;21.10;46.20;;;;;;4987969;28;19914;-53
2023/04/29 13:48:07;;;;;;;;;;;21.20;46.40;;;;;;4988366;28;19972;-53
2023/04/29 13:50:33;;;;;;;;;;;21.10;46.30;;;;;;4988076;28;19914;-53
2023/04/29 13:52:58;;;;;;;;;;;21.10;46.20;;;;;;5018250;28;20005;-54
2023/04/29 13:55:23;;;;;;;;;;;21.20;46.20;;;;;;4987601;28;19917;-53
2023/04/29 13:57:49;;;;;;;;;;;21.20;46.30;;;;;;4985994;28;20344;-53
2023/04/29 14:00:15;;;;;;;;;;;21.20;46.40;;;;;;4985858;28;19940;-53
2023/04/29 14:02:40;;;;;;;;;;;21.20;46.20;;;;;;4988000;28;19922;-53
2023/04/29 14:05:06;;;;;;;;;;;21.20;46.20;;;;;;4987304;28;19914;-53
2023/04/29 14:07:31;;;;;;;;;;;21.20;46.20;;;;;;4987851;28;19914;-55
2023/04/29 14:09:57;;;;;;;;;;;21.20;46.10;;;;;;4987232;28;19922;-53
2023/04/29 14:12:22;;;;;;;;;;;21.20;46.10;;;;;;4985427;28;19928;-54